createdAt,value
2022-11-20T00:01:28.740Z,98526.63
2022-11-20T00:03:58.963Z,98516.91
2022-11-20T00:06:28.182Z,98512.13
2022-11-20T00:08:57.725Z,98512.69
2022-11-20T00:11:26.721Z,98516.91
2022-11-20T00:13:58.323Z,98515.84
2022-11-20T00:16:27.726Z,98513.22
2022-11-20T00:18:55.832Z,98519.53
2022-11-20T00:21:25.831Z,98508.44
2022-11-20T00:23:56.182Z,98504.00
2022-11-20T00:26:25.637Z,98518.72
2022-11-20T00:28:56.438Z,98503.13
2022-11-20T00:31:24.213Z,98515.63
2022-11-20T00:33:51.973Z,98501.28
2022-11-20T00:36:24.827Z,98513.22
2022-11-20T00:38:57.074Z,98510.38
2022-11-20T00:41:25.638Z,98510.59
2022-11-20T00:43:54.518Z,98513.00
2022-11-20T00:46:24.787Z,98508.03
2022-11-20T00:48:52.669Z,98499.59
2022-11-20T00:51:22.561Z,98496.16
2022-11-20T00:53:50.647Z,98510.38
2022-11-20T00:56:20.045Z,98508.28
2022-11-20T00:58:49.320Z,98489.22
2022-11-20T01:01:18.025Z,98494.88
2022-11-20T01:03:48.532Z,98498.06
2022-11-20T01:06:17.275Z,98495.91
2022-11-20T01:08:45.444Z,98498.31
2022-11-20T01:11:16.004Z,98491.19
2022-11-20T01:13:44.826Z,98479.31
2022-11-20T01:16:19.288Z,98479.69
2022-11-20T01:18:48.593Z,98485.16
2022-11-20T01:21:22.194Z,98490.94
2022-11-20T01:23:50.776Z,98487.78
2022-11-20T01:26:21.333Z,98479.38
2022-11-20T01:28:49.406Z,98494.09
2022-11-20T01:31:19.880Z,98482.53
2022-11-20T01:33:49.426Z,98476.75
2022-11-20T01:36:18.921Z,98470.94
2022-11-20T01:38:46.778Z,98477.25
2022-11-20T01:41:36.263Z,98466.16
2022-11-20T01:44:05.070Z,98470.69
2022-11-20T01:46:41.142Z,98463.59
2022-11-20T01:49:38.737Z,98461.22
2022-11-20T01:52:12.556Z,98462.53
2022-11-20T01:54:42.439Z,98453.75
2022-11-20T01:57:13.734Z,98455.97
2022-11-20T01:59:49.245Z,98442.72
2022-11-20T02:02:22.246Z,98440.63
2022-11-20T02:04:53.026Z,98450.94
2022-11-20T02:07:21.319Z,98439.50
2022-11-20T02:09:48.854Z,98450.38
2022-11-20T02:12:34.819Z,98450.59
2022-11-20T02:15:25.115Z,98449.31
2022-11-20T02:17:56.381Z,98445.41
2022-11-20T02:20:23.871Z,98441.44
2022-11-20T02:23:14.091Z,98450.72
2022-11-20T02:25:44.899Z,98446.75
2022-11-20T02:28:12.269Z,98435.66
2022-11-20T02:30:39.647Z,98437.50
2022-11-20T02:33:06.987Z,98434.38
2022-11-20T02:35:34.339Z,98431.06
2022-11-20T02:38:03.924Z,98421.34
2022-11-20T02:40:31.419Z,98415.81
2022-11-20T02:42:58.888Z,98422.19
2022-11-20T02:45:26.631Z,98421.69
2022-11-20T02:47:54.364Z,98422.25
2022-11-20T02:50:21.911Z,98421.22
2022-11-20T02:52:49.292Z,98406.72
2022-11-20T02:55:16.782Z,98422.56
2022-11-20T02:57:44.607Z,98417.28
2022-11-20T03:00:12.732Z,98423.16
2022-11-20T03:02:40.060Z,98420.84
2022-11-20T03:05:07.902Z,98427.72
2022-11-20T03:07:35.341Z,98418.78
2022-11-20T03:10:05.531Z,98418.84
2022-11-20T03:12:33.048Z,98416.69
2022-11-20T03:15:00.425Z,98419.94
2022-11-20T03:17:28.039Z,98420.47
2022-11-20T03:19:55.357Z,98415.25
2022-11-20T03:22:41.162Z,98428.81
2022-11-20T03:25:18.640Z,98431.00
2022-11-20T03:28:15.582Z,98419.66
2022-11-20T03:30:49.028Z,98411.75
2022-11-20T03:33:29.662Z,98410.97
2022-11-20T03:36:09.476Z,98420.03
2022-11-20T03:38:37.489Z,98424.78
2022-11-20T03:41:07.696Z,98418.22
2022-11-20T03:43:35.660Z,98392.50
2022-11-20T03:46:06.435Z,98409.00
2022-11-20T03:48:36.760Z,98387.88
2022-11-20T03:51:14.291Z,98395.63
2022-11-20T03:53:43.468Z,98396.97
2022-11-20T03:56:12.450Z,98390.19
2022-11-20T03:58:41.745Z,98384.44
2022-11-20T04:01:14.765Z,98383.47
2022-11-20T04:03:43.667Z,98387.22
2022-11-20T04:06:15.180Z,98382.75
2022-11-20T04:08:43.310Z,98380.16
2022-11-20T04:11:10.742Z,98390.50
2022-11-20T04:13:38.414Z,98389.44
2022-11-20T04:16:07.947Z,98386.56
2022-11-20T04:18:35.903Z,98391.06
2022-11-20T04:21:04.826Z,98386.56
2022-11-20T04:23:32.445Z,98385.25
2022-11-20T04:26:08.651Z,98377.59
2022-11-20T04:28:36.683Z,98385.81
2022-11-20T04:31:12.877Z,98387.41
2022-11-20T04:33:41.401Z,98386.38
2022-11-20T04:36:15.858Z,98379.25
2022-11-20T04:38:43.681Z,98373.41
2022-11-20T04:41:17.855Z,98385.31
2022-11-20T04:43:50.174Z,98380.56
2022-11-20T04:46:19.107Z,98383.72
2022-11-20T04:48:47.671Z,98388.25
2022-11-20T04:51:15.024Z,98376.59
2022-11-20T04:53:43.186Z,98375.00
2022-11-20T04:56:13.006Z,98375.53
2022-11-20T04:58:41.194Z,98382.94
2022-11-20T05:01:20.741Z,98379.75
2022-11-20T05:03:48.508Z,98389.81
2022-11-20T05:06:18.198Z,98380.53
2022-11-20T05:08:45.619Z,98383.47
2022-11-20T05:11:16.064Z,98383.97
2022-11-20T05:13:43.608Z,98380.84
2022-11-20T05:16:13.633Z,98370.78
2022-11-20T05:18:41.715Z,98379.22
2022-11-20T05:21:11.220Z,98361.53
2022-11-20T05:23:39.532Z,98370.25
2022-11-20T05:26:09.144Z,98369.72
2022-11-20T05:28:36.580Z,98362.84
2022-11-20T05:31:15.593Z,98370.78
2022-11-20T05:33:44.785Z,98366.53
2022-11-20T05:36:14.917Z,98363.09
2022-11-20T05:38:43.269Z,98366.78
2022-11-20T05:41:19.236Z,98360.19
2022-11-20T05:43:47.939Z,98362.56
2022-11-20T05:46:24.739Z,98362.00
2022-11-20T05:48:55.860Z,98359.88
2022-11-20T05:51:23.414Z,98369.94
2022-11-20T05:53:50.845Z,98356.97
2022-11-20T05:56:21.111Z,98360.13
2022-11-20T05:58:49.745Z,98350.56
2022-11-20T06:01:23.417Z,98357.69
2022-11-20T06:03:52.215Z,98352.09
2022-11-20T06:06:23.349Z,98362.41
2022-11-20T06:08:51.141Z,98348.66
2022-11-20T06:11:19.083Z,98353.88
2022-11-20T06:13:47.575Z,98342.47
2022-11-20T06:16:18.038Z,98350.63
2022-11-20T06:18:46.103Z,98347.69
2022-11-20T06:21:18.611Z,98355.56
2022-11-20T06:23:46.477Z,98360.06
2022-11-20T06:26:17.501Z,98365.84
2022-11-20T06:28:45.060Z,98360.00
2022-11-20T06:31:15.528Z,98360.97
2022-11-20T06:33:44.122Z,98356.69
2022-11-20T06:36:13.711Z,98342.09
2022-11-20T06:38:42.264Z,98343.09
2022-11-20T06:41:16.140Z,98340.09
2022-11-20T06:43:43.658Z,98330.97
2022-11-20T06:46:13.207Z,98335.22
2022-11-20T06:48:50.718Z,98331.78
2022-11-20T06:51:38.936Z,98315.06
2022-11-20T06:54:06.641Z,98287.06
2022-11-20T06:56:40.083Z,98320.50
2022-11-20T06:59:08.537Z,98337.63
2022-11-20T07:01:38.155Z,98331.84
2022-11-20T07:04:05.889Z,98333.09
2022-11-20T07:06:33.865Z,98320.63
2022-11-20T07:09:01.370Z,98323.72
2022-11-20T07:11:31.176Z,98309.13
2022-11-20T07:13:58.890Z,98307.50
2022-11-20T07:16:26.587Z,98328.59
2022-11-20T07:18:54.224Z,98329.28
2022-11-20T07:21:24.752Z,98319.94
2022-11-20T07:23:52.516Z,98310.56
2022-11-20T07:26:23.740Z,98325.28
2022-11-20T07:28:56.109Z,98317.03
2022-11-20T07:31:24.084Z,98311.91
2022-11-20T07:33:51.833Z,98316.06
2022-11-20T07:36:19.495Z,98313.34
2022-11-20T07:38:47.055Z,98307.22
2022-11-20T07:41:14.515Z,98302.19
2022-11-20T07:43:42.001Z,98309.31
2022-11-20T07:46:09.554Z,98307.16
2022-11-20T07:48:37.026Z,98306.56
2022-11-20T07:51:04.494Z,98297.25
2022-11-20T07:53:31.906Z,98305.22
2022-11-20T07:56:04.040Z,98303.81
2022-11-20T07:58:34.105Z,98307.22
2022-11-20T08:01:06.490Z,98309.25
2022-11-20T08:03:34.509Z,98306.31
2022-11-20T08:06:06.055Z,98313.41
2022-11-20T08:08:37.814Z,98309.09
2022-11-20T08:11:26.408Z,98318.59
2022-11-20T08:14:12.075Z,98309.16
2022-11-20T08:16:48.236Z,98310.56
2022-11-20T08:19:17.925Z,98311.00
2022-11-20T08:21:45.923Z,98308.56
2022-11-20T08:24:13.783Z,98301.88
2022-11-20T08:26:41.852Z,98308.66
2022-11-20T08:29:09.516Z,98310.97
2022-11-20T08:31:37.118Z,98298.44
2022-11-20T08:34:09.007Z,98300.63
2022-11-20T08:36:37.377Z,98304.78
2022-11-20T08:39:05.084Z,98304.41
2022-11-20T08:41:38.236Z,98300.94
2022-11-20T08:44:41.331Z,98285.38
2022-11-20T08:47:29.649Z,98276.78
2022-11-20T08:50:41.782Z,98291.88
2022-11-20T08:53:19.073Z,98263.94
2022-11-20T08:55:58.995Z,98241.34
2022-11-20T08:58:27.363Z,98258.41
2022-11-20T09:00:55.378Z,98273.31
2022-11-20T09:03:23.028Z,98275.56
2022-11-20T09:05:50.511Z,98273.19
2022-11-20T09:08:17.893Z,98276.44
2022-11-20T09:10:45.292Z,98275.75
2022-11-20T09:13:12.704Z,98278.47
2022-11-20T09:15:40.294Z,98267.94
2022-11-20T09:18:08.061Z,98265.63
2022-11-20T09:20:45.274Z,98268.31
2022-11-20T09:27:09.404Z,98258.00
2022-11-20T09:30:48.416Z,98246.97
2022-11-20T09:34:03.796Z,98217.72
2022-11-20T09:37:30.556Z,98265.53
2022-11-20T09:39:58.428Z,98238.13
2022-11-20T09:42:29.555Z,98265.47
2022-11-20T09:45:10.463Z,98273.75
2022-11-20T09:48:05.924Z,98265.75
2022-11-20T09:50:43.736Z,98259.75
2022-11-20T09:53:20.275Z,98252.91
2022-11-20T09:55:49.274Z,98256.16
2022-11-20T09:58:30.951Z,98255.19
2022-11-20T10:01:12.944Z,98250.75
2022-11-20T10:03:50.585Z,98250.47
2022-11-20T10:06:21.721Z,98244.16
2022-11-20T10:09:18.134Z,98257.38
2022-11-20T10:12:08.339Z,98248.50
2022-11-20T10:14:59.007Z,98255.78
2022-11-20T10:17:48.442Z,98249.59
2022-11-20T10:20:27.946Z,98248.28
2022-11-20T10:23:06.256Z,98243.28
2022-11-20T10:25:46.714Z,98250.16
2022-11-20T10:28:55.523Z,98245.84
2022-11-20T10:31:41.578Z,98248.09
2022-11-20T10:34:24.494Z,98245.63
2022-11-20T10:37:05.001Z,98244.56
2022-11-20T10:39:49.374Z,98253.31
2022-11-20T10:42:24.964Z,98247.28
2022-11-20T10:45:05.756Z,98244.16
2022-11-20T10:47:34.497Z,98250.03
2022-11-20T10:50:12.140Z,98250.25
2022-11-20T10:53:05.359Z,98250.53
2022-11-20T10:55:51.979Z,98250.53
2022-11-20T10:58:38.684Z,98244.50
2022-11-20T11:01:07.466Z,98243.00
2022-11-20T11:03:35.211Z,98242.00
2022-11-20T11:06:18.871Z,98250.63
2022-11-20T11:08:49.055Z,98244.88
2022-11-20T11:11:30.163Z,98246.97
2022-11-20T11:14:08.517Z,98246.97
2022-11-20T11:16:36.272Z,98243.09
2022-11-20T11:19:08.525Z,98241.00
2022-11-20T11:21:37.188Z,98240.00
2022-11-20T11:24:34.620Z,98238.22
2022-11-20T11:27:00.270Z,98207.47
2022-11-20T11:29:30.828Z,98231.00
2022-11-20T11:32:21.502Z,98214.81
2022-11-20T11:35:23.473Z,98197.06
2022-11-20T11:37:52.450Z,98225.97
2022-11-20T11:40:25.072Z,98228.19
2022-11-20T11:43:00.415Z,98208.38
2022-11-20T11:45:28.939Z,98237.81
2022-11-20T11:48:02.143Z,98242.03
2022-11-20T11:50:31.055Z,98231.78
2022-11-20T11:53:15.974Z,98230.91
2022-11-20T11:56:02.053Z,98220.34
2022-11-20T11:58:53.543Z,98229.94
2022-11-20T12:01:56.780Z,98241.72
2022-11-20T12:04:49.480Z,98238.81
2022-11-20T12:08:11.010Z,98238.31
2022-11-20T12:11:06.207Z,98255.38
2022-11-20T12:13:48.765Z,98249.88
2022-11-20T12:16:20.290Z,98247.34
2022-11-20T12:18:51.726Z,98244.53
2022-11-20T12:21:28.867Z,98237.19
2022-11-20T12:24:08.603Z,98233.97
2022-11-20T12:27:05.210Z,98231.13
2022-11-20T12:30:02.395Z,98236.72
2022-11-20T12:32:54.302Z,98226.41
2022-11-20T12:36:06.558Z,98225.41
2022-11-20T12:39:21.674Z,98231.50
2022-11-20T12:42:36.759Z,98228.06
2022-11-20T12:45:36.554Z,98230.75
2022-11-20T12:48:33.119Z,98220.22
2022-11-20T12:51:22.517Z,98223.63
2022-11-20T12:54:07.174Z,98220.00
2022-11-20T12:57:04.141Z,98189.75
2022-11-20T12:59:55.765Z,98217.25
2022-11-20T13:02:50.820Z,98202.44
2022-11-20T13:05:24.112Z,98211.75
2022-11-20T13:07:54.734Z,98218.13
2022-11-20T13:10:40.611Z,98207.28
2022-11-20T13:13:26.061Z,98212.63
2022-11-20T13:16:03.922Z,98199.13
2022-11-20T13:18:40.159Z,98200.50
2022-11-20T13:21:18.192Z,98214.78
2022-11-20T13:23:45.921Z,98215.91
2022-11-20T13:26:24.836Z,98213.50
2022-11-20T13:29:10.792Z,98212.97
2022-11-20T13:31:44.156Z,98212.75
2022-11-20T13:34:37.329Z,98202.25
2022-11-20T13:37:07.543Z,98211.53
2022-11-20T13:39:37.485Z,98188.09
2022-11-20T13:42:28.046Z,98209.66
2022-11-20T13:44:56.849Z,98204.94
2022-11-20T13:47:26.669Z,98185.41
2022-11-20T13:49:56.393Z,98206.81
2022-11-20T13:52:45.919Z,98207.84
2022-11-20T13:55:50.206Z,98190.69
2022-11-20T13:58:30.031Z,98198.09
2022-11-20T14:01:16.554Z,98203.38
2022-11-20T14:04:05.080Z,98208.75
2022-11-20T14:06:43.450Z,98188.63
2022-11-20T14:09:36.542Z,98192.59
2022-11-20T14:12:05.456Z,98196.06
2022-11-20T14:14:35.073Z,98186.00
2022-11-20T14:17:18.683Z,98187.09
2022-11-20T14:19:48.304Z,98200.06
2022-11-20T14:22:21.369Z,98198.25
2022-11-20T14:24:50.010Z,98195.34
2022-11-20T14:27:22.544Z,98183.97
2022-11-20T14:29:52.146Z,98198.31
2022-11-20T14:32:23.372Z,98192.50
2022-11-20T14:34:52.115Z,98194.06
2022-11-20T14:37:34.799Z,98198.84
2022-11-20T14:40:02.214Z,98196.22
2022-11-20T14:42:32.160Z,98187.22
2022-11-20T14:45:02.205Z,98190.38
2022-11-20T14:47:32.629Z,98187.50
2022-11-20T14:50:08.676Z,98202.00
2022-11-20T14:52:38.581Z,98188.00
2022-11-20T14:55:06.484Z,98187.72
2022-11-20T14:57:37.265Z,98197.50
2022-11-20T15:00:15.718Z,98182.94
2022-11-20T15:02:45.806Z,98193.78
2022-11-20T15:05:16.389Z,98182.44
2022-11-20T15:07:48.259Z,98181.66
2022-11-20T15:10:27.462Z,98175.53
2022-11-20T15:13:03.794Z,98191.91
2022-11-20T15:15:51.442Z,98175.25
2022-11-20T15:18:25.711Z,98176.59
2022-11-20T15:20:55.106Z,98175.81
2022-11-20T15:23:22.586Z,98169.75
2022-11-20T15:25:51.065Z,98178.19
2022-11-20T15:28:32.081Z,98170.28
2022-11-20T15:30:59.686Z,98171.09
2022-11-20T15:33:27.258Z,98160.25
2022-11-20T15:35:54.938Z,98156.56
2022-11-20T15:38:22.599Z,98167.94
2022-11-20T15:40:50.092Z,98151.28
2022-11-20T15:43:17.550Z,98148.88
2022-11-20T15:46:17.053Z,98161.00
2022-11-20T15:48:52.772Z,98154.66
2022-11-20T15:51:26.326Z,98154.69
2022-11-20T15:53:54.099Z,98155.44
2022-11-20T15:56:21.551Z,98140.66
2022-11-20T15:58:49.204Z,98148.88
2022-11-20T16:01:19.916Z,98144.94
2022-11-20T16:03:48.141Z,98126.47
2022-11-20T16:06:17.510Z,98123.88
2022-11-20T16:08:45.282Z,98096.97
2022-11-20T16:11:18.935Z,98124.09
2022-11-20T16:14:06.278Z,98132.59
2022-11-20T16:16:36.736Z,98145.53
2022-11-20T16:19:07.566Z,98124.44
2022-11-20T16:21:36.137Z,98133.13
2022-11-20T16:24:06.513Z,98083.28
2022-11-20T16:26:35.074Z,98122.56
2022-11-20T16:29:04.855Z,98113.88
2022-11-20T16:31:33.500Z,98078.00
2022-11-20T16:34:10.196Z,98114.91
2022-11-20T16:36:44.917Z,98100.13
2022-11-20T16:39:13.475Z,98125.22
2022-11-20T16:41:41.007Z,98121.53
2022-11-20T16:44:11.941Z,98110.19
2022-11-20T16:46:41.088Z,98101.47
2022-11-20T16:49:13.850Z,98111.22
2022-11-20T16:51:42.224Z,98104.09
2022-11-20T16:54:13.037Z,98104.91
2022-11-20T16:56:43.447Z,98121.00
2022-11-20T16:59:14.117Z,98111.75
2022-11-20T17:01:43.397Z,98099.13
2022-11-20T17:04:11.083Z,98118.91
2022-11-20T17:06:42.268Z,98122.59
2022-11-20T17:09:11.189Z,98109.94
2022-11-20T17:11:39.113Z,98113.38
2022-11-20T17:14:09.768Z,98114.72
2022-11-20T17:16:38.664Z,98113.41
2022-11-20T17:19:09.216Z,98110.50
2022-11-20T17:21:37.465Z,98113.41
2022-11-20T17:24:07.137Z,98103.63
2022-11-20T17:26:35.505Z,98109.16
2022-11-20T17:29:10.302Z,98111.03
2022-11-20T17:31:40.979Z,98116.31
2022-11-20T17:34:14.124Z,98109.16
2022-11-20T17:36:46.188Z,98114.19
2022-11-20T17:39:17.859Z,98121.31
2022-11-20T17:41:45.803Z,98111.03
2022-11-20T17:44:13.665Z,98104.69
2022-11-20T17:46:41.323Z,98117.09
2022-11-20T17:49:09.054Z,98114.22
2022-11-20T17:51:36.598Z,98101.78
2022-11-20T17:54:07.782Z,98105.47
2022-11-20T17:56:55.032Z,98096.50
2022-11-20T17:59:23.149Z,98100.19
2022-11-20T18:01:50.975Z,98107.84
2022-11-20T18:04:18.622Z,98104.16
2022-11-20T18:06:46.370Z,98101.78
2022-11-20T18:09:14.061Z,98101.00
2022-11-20T18:11:42.802Z,98097.81
2022-11-20T18:14:36.745Z,98104.94
2022-11-20T18:17:07.613Z,98099.13
2022-11-20T18:19:48.058Z,98091.22
2022-11-20T18:22:31.200Z,98099.69
2022-11-20T18:24:59.004Z,98096.78
2022-11-20T18:27:26.510Z,98099.16
2022-11-20T18:29:54.088Z,98096.28
2022-11-20T18:32:22.984Z,98102.06
2022-11-20T18:34:51.534Z,98108.69
2022-11-20T18:37:20.187Z,98097.88
2022-11-20T18:39:47.699Z,98100.50
2022-11-20T18:42:35.134Z,98091.28
2022-11-20T18:45:04.719Z,98100.78
2022-11-20T18:47:38.176Z,98094.44
2022-11-20T18:50:07.463Z,98100.25
2022-11-20T18:52:39.751Z,98103.94
2022-11-20T18:55:08.216Z,98090.22
2022-11-20T18:57:35.881Z,98089.16
2022-11-20T19:00:08.948Z,98098.16
2022-11-20T19:02:42.052Z,98093.38
2022-11-20T19:05:14.893Z,98091.53
2022-11-20T19:07:43.336Z,98097.38
2022-11-20T19:10:10.939Z,98092.84
2022-11-20T19:12:38.562Z,98088.09
2022-11-20T19:15:06.490Z,98089.44
2022-11-20T19:17:35.050Z,98085.47
2022-11-20T19:20:02.464Z,98087.34
2022-11-20T19:22:31.416Z,98089.19
2022-11-20T19:24:58.896Z,98096.28
2022-11-20T19:27:26.450Z,98095.75
2022-11-20T19:29:57.763Z,98089.97
2022-11-20T19:32:25.271Z,98105.53
2022-11-20T19:34:52.799Z,98094.16
2022-11-20T19:37:20.237Z,98088.09
2022-11-20T19:39:47.580Z,98093.13
2022-11-20T19:42:15.159Z,98101.31
2022-11-20T19:44:42.583Z,98095.47
2022-11-20T19:47:14.176Z,98084.66
2022-11-20T19:49:42.392Z,98084.69
2022-11-20T19:52:09.953Z,98090.75
2022-11-20T19:54:37.567Z,98083.34
2022-11-20T19:57:04.957Z,98082.03
2022-11-20T19:59:32.345Z,98082.81
2022-11-20T20:01:59.811Z,98093.09
2022-11-20T20:04:27.615Z,98092.56
2022-11-20T20:06:55.263Z,98086.75
2022-11-20T20:09:24.082Z,98081.22
2022-11-20T20:11:51.532Z,98089.38
2022-11-20T20:14:19.492Z,98099.16
2022-11-20T20:16:47.139Z,98075.38
2022-11-20T20:19:17.433Z,98094.41
2022-11-20T20:21:45.147Z,98090.19
2022-11-20T20:24:12.749Z,98098.59
2022-11-20T20:26:40.354Z,98104.13
2022-11-20T20:29:07.863Z,98101.22
2022-11-20T20:31:35.845Z,98089.84
2022-11-20T20:34:05.584Z,98089.84
2022-11-20T20:36:33.469Z,98092.50
2022-11-20T20:39:02.972Z,98085.38
2022-11-20T20:41:31.262Z,98089.31
2022-11-20T20:44:17.461Z,98078.78
2022-11-20T20:46:44.804Z,98075.88
2022-11-20T20:49:12.318Z,98074.06
2022-11-20T20:51:39.786Z,98074.84
2022-11-20T20:54:07.139Z,98067.44
2022-11-20T20:56:34.767Z,98070.38
2022-11-20T20:59:03.333Z,98069.06
2022-11-20T21:01:30.777Z,98068.25
2022-11-20T21:03:58.222Z,98066.69
2022-11-20T21:06:26.224Z,98068.78
2022-11-20T21:08:56.119Z,98073.03
2022-11-20T21:11:23.620Z,98064.31
2022-11-20T21:13:51.160Z,98066.19
2022-11-20T21:16:25.218Z,98079.38
2022-11-20T21:18:52.690Z,98065.63
2022-11-20T21:21:38.364Z,98067.50
2022-11-20T21:24:06.540Z,98066.97
2022-11-20T21:26:34.354Z,98062.19
2022-11-20T21:29:01.836Z,98063.53
2022-11-20T21:31:30.348Z,98057.19
2022-11-20T21:33:58.479Z,98061.41
2022-11-20T21:36:28.495Z,98067.47
2022-11-20T21:38:57.252Z,98058.22
2022-11-20T21:41:26.958Z,98049.00
2022-11-20T21:44:29.034Z,98054.53
2022-11-20T21:46:45.075Z,98055.59
2022-11-20T21:49:13.353Z,98055.34
2022-11-20T21:51:41.063Z,98050.56
2022-11-20T21:54:10.509Z,98055.34
2022-11-20T21:56:37.989Z,98048.19
2022-11-20T21:59:05.327Z,98041.88
2022-11-20T22:01:32.779Z,98041.09
2022-11-20T22:04:02.566Z,98040.31
2022-11-20T22:06:35.602Z,98042.66
2022-11-20T22:09:04.241Z,98031.88
2022-11-20T22:11:31.721Z,98031.59
2022-11-20T22:14:17.815Z,98031.06
2022-11-20T22:16:45.236Z,98031.06
2022-11-20T22:19:16.390Z,98035.56
2022-11-20T22:21:43.813Z,98028.97
2022-11-20T22:24:17.360Z,98035.56
2022-11-20T22:26:45.006Z,98032.91
2022-11-20T22:29:21.168Z,98029.22
2022-11-20T22:31:51.228Z,98022.91
2022-11-20T22:34:18.581Z,98027.66
2022-11-20T22:36:45.986Z,98024.47
2022-11-20T22:39:13.378Z,98005.75
2022-11-20T22:41:40.765Z,98005.47
2022-11-20T22:44:09.289Z,98007.84
2022-11-20T22:46:38.153Z,98002.09
2022-11-20T22:49:08.781Z,98003.09
2022-11-20T22:51:39.579Z,98003.09
2022-11-20T22:54:08.078Z,97998.66
2022-11-20T22:56:35.577Z,97994.94
2022-11-20T22:59:03.336Z,97987.84
2022-11-20T23:01:33.001Z,97997.31
2022-11-20T23:04:02.150Z,98001.53
2022-11-20T23:06:30.578Z,97997.06
2022-11-20T23:08:57.922Z,98003.41
2022-11-20T23:11:27.848Z,98002.63
2022-11-20T23:14:00.580Z,98003.69
2022-11-20T23:16:29.989Z,98001.84
2022-11-20T23:19:03.415Z,98000.78
2022-11-20T23:21:30.847Z,97997.34
2022-11-20T23:23:59.585Z,98000.50
2022-11-20T23:26:35.049Z,98017.66
2022-11-20T23:29:03.572Z,98016.34
2022-11-20T23:31:32.977Z,98011.06
2022-11-20T23:34:00.980Z,98014.50
2022-11-20T23:36:28.795Z,98011.84
2022-11-20T23:38:56.774Z,98011.31
2022-11-20T23:41:29.170Z,98023.44
2022-11-20T23:44:00.174Z,98005.75
2022-11-20T23:46:27.809Z,98000.47
2022-11-20T23:48:55.264Z,98009.44
2022-11-20T23:51:22.721Z,98010.72
2022-11-20T23:53:50.041Z,98015.75
2022-11-20T23:56:17.510Z,98013.91
2022-11-20T23:58:44.967Z,98009.41
